Main page
METAR-TAF:

METAR-TAF

Airports :

Kunovice Airport

Uherské Hradiště, Czech Republic

latitude: 49-01-46N, longitude: 017-26-23E, elevation: 177 m

Current weather observation

The report was made 37 minutes ago, at 11:00 UTC
Wind 20 kt from the South with gusts up to 29 kt
Temperature 12°C
Humidity 82%
Pressure 1010 hPa
Visibility 10 km or more
Few clouds at a height of 1700 ft
Scattered clouds at a height of 2100 ft

METAR: LKKU 151100Z 17020G29KT 9999 FEW017 SCT021 12/09 Q1010

Time: 12:37 (11:37 UTC)


TAF: missing

Weather observations and forecasts of more than 4000 airports (METAR and TAF reports).

The available stations are represented by yellow and red dots on the map.

Hover mouse over dot to see the name of the station.

Then click to see weather observations and forecasts.

To change the map : click on the green buttons with a black cross to zoom in, on the green button with a dash to zoom out, or on the green arrows for adjacent maps.


METAR-TAF: